sensor_id;sensor_type;location;lat;lon;timestamp;P1;durP1;ratioP1;P2;durP2;ratioP2
18702;SDS011;9481;48.796;9.210;2022-07-29T00:00:43;4.00;;;3.60;;
18702;SDS011;9481;48.796;9.210;2022-07-29T00:03:11;4.47;;;3.77;;
18702;SDS011;9481;48.796;9.210;2022-07-29T00:05:38;4.33;;;3.80;;
18702;SDS011;9481;48.796;9.210;2022-07-29T00:08:06;5.30;;;3.77;;
18702;SDS011;9481;48.796;9.210;2022-07-29T00:10:35;6.93;;;3.70;;
18702;SDS011;9481;48.796;9.210;2022-07-29T00:13:00;5.67;;;4.17;;
18702;SDS011;9481;48.796;9.210;2022-07-29T00:15:27;4.93;;;3.97;;
18702;SDS011;9481;48.796;9.210;2022-07-29T00:17:53;6.57;;;4.43;;
18702;SDS011;9481;48.796;9.210;2022-07-29T00:20:18;5.83;;;4.40;;
18702;SDS011;9481;48.796;9.210;2022-07-29T00:22:44;4.70;;;4.10;;
18702;SDS011;9481;48.796;9.210;2022-07-29T00:25:11;5.50;;;4.30;;
18702;SDS011;9481;48.796;9.210;2022-07-29T00:27:37;4.50;;;3.93;;
18702;SDS011;9481;48.796;9.210;2022-07-29T00:30:04;4.90;;;4.10;;
18702;SDS011;9481;48.796;9.210;2022-07-29T00:32:31;4.50;;;3.80;;
18702;SDS011;9481;48.796;9.210;2022-07-29T00:34:57;4.50;;;4.10;;
18702;SDS011;9481;48.796;9.210;2022-07-29T00:37:41;4.97;;;3.63;;
18702;SDS011;9481;48.796;9.210;2022-07-29T00:40:07;4.13;;;3.80;;
18702;SDS011;9481;48.796;9.210;2022-07-29T00:42:44;3.77;;;3.40;;
18702;SDS011;9481;48.796;9.210;2022-07-29T00:45:12;6.33;;;3.60;;
18702;SDS011;9481;48.796;9.210;2022-07-29T00:47:39;3.73;;;3.43;;
18702;SDS011;9481;48.796;9.210;2022-07-29T00:50:05;4.53;;;4.13;;
18702;SDS011;9481;48.796;9.210;2022-07-29T00:52:34;5.00;;;3.87;;
18702;SDS011;9481;48.796;9.210;2022-07-29T00:55:03;6.03;;;4.13;;
18702;SDS011;9481;48.796;9.210;2022-07-29T00:57:31;5.27;;;3.73;;
18702;SDS011;9481;48.796;9.210;2022-07-29T00:59:58;4.00;;;3.70;;
18702;SDS011;9481;48.796;9.210;2022-07-29T01:02:24;3.97;;;3.57;;
18702;SDS011;9481;48.796;9.210;2022-07-29T01:04:49;4.10;;;3.70;;
18702;SDS011;9481;48.796;9.210;2022-07-29T01:07:16;3.83;;;3.43;;
18702;SDS011;9481;48.796;9.210;2022-07-29T01:09:43;4.37;;;3.47;;
18702;SDS011;9481;48.796;9.210;2022-07-29T01:12:11;3.63;;;3.13;;
18702;SDS011;9481;48.796;9.210;2022-07-29T01:14:41;5.30;;;3.67;;
18702;SDS011;9481;48.796;9.210;2022-07-29T01:31:14;4.30;;;3.60;;
18702;SDS011;9481;48.796;9.210;2022-07-29T01:33:46;5.13;;;3.37;;
18702;SDS011;9481;48.796;9.210;2022-07-29T01:36:23;3.70;;;3.30;;
18702;SDS011;9481;48.796;9.210;2022-07-29T01:39:08;4.67;;;3.47;;
18702;SDS011;9481;48.796;9.210;2022-07-29T01:41:44;4.77;;;3.77;;
18702;SDS011;9481;48.796;9.210;2022-07-29T01:48:06;3.70;;;3.23;;
18702;SDS011;9481;48.796;9.210;2022-07-29T01:51:07;4.40;;;3.53;;
18702;SDS011;9481;48.796;9.210;2022-07-29T01:56:29;5.23;;;3.80;;
18702;SDS011;9481;48.796;9.210;2022-07-29T01:58:58;3.67;;;3.37;;
18702;SDS011;9481;48.796;9.210;2022-07-29T02:01:26;3.60;;;3.30;;
18702;SDS011;9481;48.796;9.210;2022-07-29T02:03:56;4.63;;;3.17;;
18702;SDS011;9481;48.796;9.210;2022-07-29T02:06:26;6.13;;;3.13;;
18702;SDS011;9481;48.796;9.210;2022-07-29T02:08:56;3.43;;;3.13;;
18702;SDS011;9481;48.796;9.210;2022-07-29T02:11:24;4.37;;;3.30;;
18702;SDS011;9481;48.796;9.210;2022-07-29T02:13:50;3.63;;;3.10;;
18702;SDS011;9481;48.796;9.210;2022-07-29T02:16:20;3.17;;;2.73;;
18702;SDS011;9481;48.796;9.210;2022-07-29T02:18:50;3.97;;;2.97;;
18702;SDS011;9481;48.796;9.210;2022-07-29T02:21:21;3.57;;;3.20;;
18702;SDS011;9481;48.796;9.210;2022-07-29T02:23:51;3.50;;;3.20;;
18702;SDS011;9481;48.796;9.210;2022-07-29T02:26:19;4.00;;;2.90;;
18702;SDS011;9481;48.796;9.210;2022-07-29T02:28:48;4.83;;;3.13;;
18702;SDS011;9481;48.796;9.210;2022-07-29T02:31:17;3.93;;;2.90;;
18702;SDS011;9481;48.796;9.210;2022-07-29T02:33:47;3.17;;;2.87;;
18702;SDS011;9481;48.796;9.210;2022-07-29T02:36:14;4.93;;;3.23;;
18702;SDS011;9481;48.796;9.210;2022-07-29T02:38:42;3.83;;;3.10;;
18702;SDS011;9481;48.796;9.210;2022-07-29T02:44:14;3.27;;;2.97;;
18702;SDS011;9481;48.796;9.210;2022-07-29T02:46:45;4.40;;;2.90;;
18702;SDS011;9481;48.796;9.210;2022-07-29T02:49:30;3.13;;;2.83;;
18702;SDS011;9481;48.796;9.210;2022-07-29T02:52:04;5.27;;;3.03;;
18702;SDS011;9481;48.796;9.210;2022-07-29T02:54:46;2.97;;;2.67;;
18702;SDS011;9481;48.796;9.210;2022-07-29T02:57:36;4.43;;;2.70;;
18702;SDS011;9481;48.796;9.210;2022-07-29T03:00:09;3.50;;;2.80;;
18702;SDS011;9481;48.796;9.210;2022-07-29T03:02:37;3.03;;;2.83;;
18702;SDS011;9481;48.796;9.210;2022-07-29T03:05:09;4.63;;;2.67;;
18702;SDS011;9481;48.796;9.210;2022-07-29T03:07:43;3.87;;;2.90;;
18702;SDS011;9481;48.796;9.210;2022-07-29T03:10:14;3.93;;;2.80;;
18702;SDS011;9481;48.796;9.210;2022-07-29T03:12:41;3.20;;;3.00;;
18702;SDS011;9481;48.796;9.210;2022-07-29T03:15:08;3.17;;;2.70;;
18702;SDS011;9481;48.796;9.210;2022-07-29T03:17:35;5.00;;;3.83;;
18702;SDS011;9481;48.796;9.210;2022-07-29T03:20:02;4.13;;;3.43;;
18702;SDS011;9481;48.796;9.210;2022-07-29T03:22:29;5.43;;;3.43;;
18702;SDS011;9481;48.796;9.210;2022-07-29T03:24:55;3.50;;;3.20;;
18702;SDS011;9481;48.796;9.210;2022-07-29T03:27:21;3.40;;;3.10;;
18702;SDS011;9481;48.796;9.210;2022-07-29T03:29:46;2.90;;;2.70;;
18702;SDS011;9481;48.796;9.210;2022-07-29T03:32:12;3.10;;;2.80;;
18702;SDS011;9481;48.796;9.210;2022-07-29T03:34:38;3.20;;;2.90;;
18702;SDS011;9481;48.796;9.210;2022-07-29T03:37:04;4.83;;;3.20;;
18702;SDS011;9481;48.796;9.210;2022-07-29T03:39:33;3.93;;;3.07;;
18702;SDS011;9481;48.796;9.210;2022-07-29T03:42:05;3.90;;;3.50;;
18702;SDS011;9481;48.796;9.210;2022-07-29T03:44:35;4.00;;;3.03;;
18702;SDS011;9481;48.796;9.210;2022-07-29T03:47:02;2.90;;;2.70;;
18702;SDS011;9481;48.796;9.210;2022-07-29T03:49:31;3.30;;;3.00;;
18702;SDS011;9481;48.796;9.210;2022-07-29T03:52:01;4.10;;;3.43;;
18702;SDS011;9481;48.796;9.210;2022-07-29T03:54:26;3.93;;;3.07;;
18702;SDS011;9481;48.796;9.210;2022-07-29T03:56:52;3.90;;;3.60;;
18702;SDS011;9481;48.796;9.210;2022-07-29T03:59:24;3.47;;;3.17;;
18702;SDS011;9481;48.796;9.210;2022-07-29T04:01:51;3.37;;;2.77;;
18702;SDS011;9481;48.796;9.210;2022-07-29T04:04:17;3.30;;;3.00;;
18702;SDS011;9481;48.796;9.210;2022-07-29T04:06:44;3.20;;;2.90;;
18702;SDS011;9481;48.796;9.210;2022-07-29T04:09:11;3.37;;;2.93;;
18702;SDS011;9481;48.796;9.210;2022-07-29T04:11:40;3.47;;;3.17;;
18702;SDS011;9481;48.796;9.210;2022-07-29T04:14:07;3.20;;;2.63;;
18702;SDS011;9481;48.796;9.210;2022-07-29T04:16:33;3.30;;;3.00;;
18702;SDS011;9481;48.796;9.210;2022-07-29T04:18:59;3.30;;;3.00;;
18702;SDS011;9481;48.796;9.210;2022-07-29T04:21:25;3.67;;;3.30;;
18702;SDS011;9481;48.796;9.210;2022-07-29T04:23:50;3.40;;;3.10;;
18702;SDS011;9481;48.796;9.210;2022-07-29T04:26:17;3.80;;;2.90;;
18702;SDS011;9481;48.796;9.210;2022-07-29T04:28:43;3.33;;;3.03;;
18702;SDS011;9481;48.796;9.210;2022-07-29T04:31:10;3.87;;;3.20;;
18702;SDS011;9481;48.796;9.210;2022-07-29T04:33:37;2.93;;;2.73;;
18702;SDS011;9481;48.796;9.210;2022-07-29T04:36:04;2.93;;;2.67;;
18702;SDS011;9481;48.796;9.210;2022-07-29T04:38:30;3.43;;;3.00;;
18702;SDS011;9481;48.796;9.210;2022-07-29T04:40:56;4.07;;;2.93;;
18702;SDS011;9481;48.796;9.210;2022-07-29T04:43:21;3.47;;;2.70;;
18702;SDS011;9481;48.796;9.210;2022-07-29T04:45:47;3.03;;;2.73;;
18702;SDS011;9481;48.796;9.210;2022-07-29T04:48:13;5.10;;;2.63;;
18702;SDS011;9481;48.796;9.210;2022-07-29T04:50:39;3.00;;;2.80;;
18702;SDS011;9481;48.796;9.210;2022-07-29T04:53:05;4.87;;;3.07;;
18702;SDS011;9481;48.796;9.210;2022-07-29T04:55:32;2.80;;;2.60;;
18702;SDS011;9481;48.796;9.210;2022-07-29T04:57:58;4.23;;;2.60;;
18702;SDS011;9481;48.796;9.210;2022-07-29T05:00:24;2.90;;;2.70;;
18702;SDS011;9481;48.796;9.210;2022-07-29T05:02:50;3.00;;;2.70;;
18702;SDS011;9481;48.796;9.210;2022-07-29T05:05:15;4.10;;;3.00;;
18702;SDS011;9481;48.796;9.210;2022-07-29T05:07:41;4.33;;;2.80;;
18702;SDS011;9481;48.796;9.210;2022-07-29T05:10:07;3.03;;;2.83;;
18702;SDS011;9481;48.796;9.210;2022-07-29T05:12:34;3.07;;;2.77;;
18702;SDS011;9481;48.796;9.210;2022-07-29T05:15:00;3.37;;;3.00;;
18702;SDS011;9481;48.796;9.210;2022-07-29T05:17:26;2.70;;;2.50;;
18702;SDS011;9481;48.796;9.210;2022-07-29T05:19:52;2.77;;;2.57;;
18702;SDS011;9481;48.796;9.210;2022-07-29T05:22:18;2.70;;;2.50;;
18702;SDS011;9481;48.796;9.210;2022-07-29T05:24:45;3.67;;;2.30;;
18702;SDS011;9481;48.796;9.210;2022-07-29T05:27:11;3.00;;;2.70;;
18702;SDS011;9481;48.796;9.210;2022-07-29T05:29:37;2.47;;;2.27;;
18702;SDS011;9481;48.796;9.210;2022-07-29T05:32:03;3.00;;;2.70;;
18702;SDS011;9481;48.796;9.210;2022-07-29T05:34:30;4.50;;;2.50;;
18702;SDS011;9481;48.796;9.210;2022-07-29T05:36:56;3.90;;;2.60;;
18702;SDS011;9481;48.796;9.210;2022-07-29T05:39:23;2.30;;;2.10;;
18702;SDS011;9481;48.796;9.210;2022-07-29T05:41:48;2.80;;;2.60;;
18702;SDS011;9481;48.796;9.210;2022-07-29T05:44:14;4.13;;;2.63;;
18702;SDS011;9481;48.796;9.210;2022-07-29T05:46:40;5.20;;;2.50;;
18702;SDS011;9481;48.796;9.210;2022-07-29T05:49:06;5.10;;;2.67;;
18702;SDS011;9481;48.796;9.210;2022-07-29T05:51:35;3.47;;;2.53;;
18702;SDS011;9481;48.796;9.210;2022-07-29T05:54:01;2.90;;;2.70;;
18702;SDS011;9481;48.796;9.210;2022-07-29T05:56:27;2.90;;;2.70;;
18702;SDS011;9481;48.796;9.210;2022-07-29T05:58:53;2.53;;;2.33;;
18702;SDS011;9481;48.796;9.210;2022-07-29T06:01:19;2.30;;;2.10;;
18702;SDS011;9481;48.796;9.210;2022-07-29T06:03:44;2.50;;;2.30;;
18702;SDS011;9481;48.796;9.210;2022-07-29T06:06:10;2.63;;;2.43;;
18702;SDS011;9481;48.796;9.210;2022-07-29T06:08:37;2.10;;;1.90;;
18702;SDS011;9481;48.796;9.210;2022-07-29T06:11:03;3.63;;;1.90;;
18702;SDS011;9481;48.796;9.210;2022-07-29T06:13:30;2.97;;;1.87;;
18702;SDS011;9481;48.796;9.210;2022-07-29T06:15:56;3.77;;;2.23;;
18702;SDS011;9481;48.796;9.210;2022-07-29T06:18:22;2.20;;;2.00;;
18702;SDS011;9481;48.796;9.210;2022-07-29T06:20:50;3.00;;;1.87;;
18702;SDS011;9481;48.796;9.210;2022-07-29T06:23:18;2.40;;;1.80;;
18702;SDS011;9481;48.796;9.210;2022-07-29T06:25:44;2.20;;;2.00;;
18702;SDS011;9481;48.796;9.210;2022-07-29T06:28:11;4.00;;;1.97;;
18702;SDS011;9481;48.796;9.210;2022-07-29T06:30:37;1.90;;;1.80;;
18702;SDS011;9481;48.796;9.210;2022-07-29T06:33:04;1.70;;;1.60;;
18702;SDS011;9481;48.796;9.210;2022-07-29T06:35:32;1.80;;;1.70;;
18702;SDS011;9481;48.796;9.210;2022-07-29T06:38:00;1.80;;;1.50;;
18702;SDS011;9481;48.796;9.210;2022-07-29T06:40:27;1.93;;;1.70;;
18702;SDS011;9481;48.796;9.210;2022-07-29T06:43:12;2.03;;;1.70;;
18702;SDS011;9481;48.796;9.210;2022-07-29T06:45:37;2.20;;;1.73;;
18702;SDS011;9481;48.796;9.210;2022-07-29T06:48:05;2.00;;;1.90;;
18702;SDS011;9481;48.796;9.210;2022-07-29T06:50:31;2.10;;;1.90;;
18702;SDS011;9481;48.796;9.210;2022-07-29T06:52:57;2.73;;;2.00;;
18702;SDS011;9481;48.796;9.210;2022-07-29T06:55:22;2.07;;;1.93;;
18702;SDS011;9481;48.796;9.210;2022-07-29T06:57:49;2.20;;;2.00;;
18702;SDS011;9481;48.796;9.210;2022-07-29T07:00:15;2.23;;;2.00;;
18702;SDS011;9481;48.796;9.210;2022-07-29T07:02:41;3.50;;;2.27;;
18702;SDS011;9481;48.796;9.210;2022-07-29T07:05:06;2.53;;;2.10;;
18702;SDS011;9481;48.796;9.210;2022-07-29T07:07:32;2.37;;;2.17;;
18702;SDS011;9481;48.796;9.210;2022-07-29T07:09:58;2.40;;;2.17;;
18702;SDS011;9481;48.796;9.210;2022-07-29T07:12:23;3.60;;;2.50;;
18702;SDS011;9481;48.796;9.210;2022-07-29T07:14:49;2.53;;;2.33;;
18702;SDS011;9481;48.796;9.210;2022-07-29T07:17:15;2.93;;;2.37;;
18702;SDS011;9481;48.796;9.210;2022-07-29T07:19:40;2.37;;;2.17;;
18702;SDS011;9481;48.796;9.210;2022-07-29T07:22:06;3.20;;;2.30;;
18702;SDS011;9481;48.796;9.210;2022-07-29T07:24:31;3.13;;;2.70;;
18702;SDS011;9481;48.796;9.210;2022-07-29T07:26:57;2.27;;;2.13;;
18702;SDS011;9481;48.796;9.210;2022-07-29T07:29:23;3.33;;;2.90;;
18702;SDS011;9481;48.796;9.210;2022-07-29T07:31:48;3.23;;;2.83;;
18702;SDS011;9481;48.796;9.210;2022-07-29T07:34:14;4.73;;;2.40;;
18702;SDS011;9481;48.796;9.210;2022-07-29T07:36:40;3.20;;;2.90;;
18702;SDS011;9481;48.796;9.210;2022-07-29T07:39:05;3.23;;;2.93;;
18702;SDS011;9481;48.796;9.210;2022-07-29T07:41:31;3.10;;;2.90;;
18702;SDS011;9481;48.796;9.210;2022-07-29T07:43:57;4.70;;;3.17;;
18702;SDS011;9481;48.796;9.210;2022-07-29T07:46:23;4.03;;;3.00;;
18702;SDS011;9481;48.796;9.210;2022-07-29T07:48:49;2.83;;;2.63;;
18702;SDS011;9481;48.796;9.210;2022-07-29T07:51:17;3.47;;;2.90;;
18702;SDS011;9481;48.796;9.210;2022-07-29T07:53:43;3.33;;;2.83;;
18702;SDS011;9481;48.796;9.210;2022-07-29T07:56:09;3.57;;;2.70;;
18702;SDS011;9481;48.796;9.210;2022-07-29T07:58:35;4.83;;;2.70;;
18702;SDS011;9481;48.796;9.210;2022-07-29T08:01:01;3.10;;;2.70;;
18702;SDS011;9481;48.796;9.210;2022-07-29T08:03:27;3.30;;;2.70;;
18702;SDS011;9481;48.796;9.210;2022-07-29T08:05:53;2.93;;;2.67;;
18702;SDS011;9481;48.796;9.210;2022-07-29T08:08:19;2.80;;;2.60;;
18702;SDS011;9481;48.796;9.210;2022-07-29T08:10:45;3.10;;;2.80;;
18702;SDS011;9481;48.796;9.210;2022-07-29T08:13:17;3.73;;;2.77;;
18702;SDS011;9481;48.796;9.210;2022-07-29T08:15:45;3.57;;;2.97;;
18702;SDS011;9481;48.796;9.210;2022-07-29T08:18:11;2.77;;;2.57;;
18702;SDS011;9481;48.796;9.210;2022-07-29T08:20:38;2.70;;;2.50;;
18702;SDS011;9481;48.796;9.210;2022-07-29T08:23:05;3.07;;;2.80;;
18702;SDS011;9481;48.796;9.210;2022-07-29T08:25:34;3.00;;;2.60;;
18702;SDS011;9481;48.796;9.210;2022-07-29T08:28:03;3.70;;;2.70;;
18702;SDS011;9481;48.796;9.210;2022-07-29T08:30:28;3.83;;;2.80;;
18702;SDS011;9481;48.796;9.210;2022-07-29T08:32:54;4.13;;;2.93;;
18702;SDS011;9481;48.796;9.210;2022-07-29T08:35:21;3.07;;;2.80;;
18702;SDS011;9481;48.796;9.210;2022-07-29T08:37:48;3.70;;;3.20;;
18702;SDS011;9481;48.796;9.210;2022-07-29T08:40:14;3.50;;;3.20;;
18702;SDS011;9481;48.796;9.210;2022-07-29T08:42:39;3.53;;;2.80;;
18702;SDS011;9481;48.796;9.210;2022-07-29T08:45:05;3.73;;;3.17;;
18702;SDS011;9481;48.796;9.210;2022-07-29T08:47:32;3.30;;;3.00;;
18702;SDS011;9481;48.796;9.210;2022-07-29T08:49:58;3.03;;;2.70;;
18702;SDS011;9481;48.796;9.210;2022-07-29T08:52:25;3.97;;;2.90;;
18702;SDS011;9481;48.796;9.210;2022-07-29T08:54:53;3.77;;;3.00;;
18702;SDS011;9481;48.796;9.210;2022-07-29T08:57:19;4.00;;;2.87;;
18702;SDS011;9481;48.796;9.210;2022-07-29T08:59:47;4.90;;;2.77;;
18702;SDS011;9481;48.796;9.210;2022-07-29T09:02:20;2.90;;;2.70;;
18702;SDS011;9481;48.796;9.210;2022-07-29T09:04:47;3.57;;;2.90;;
18702;SDS011;9481;48.796;9.210;2022-07-29T09:07:15;3.20;;;2.87;;
18702;SDS011;9481;48.796;9.210;2022-07-29T09:09:42;3.13;;;2.83;;
18702;SDS011;9481;48.796;9.210;2022-07-29T09:12:09;3.70;;;3.00;;
18702;SDS011;9481;48.796;9.210;2022-07-29T09:14:36;3.33;;;3.03;;
18702;SDS011;9481;48.796;9.210;2022-07-29T09:17:03;3.03;;;2.77;;
18702;SDS011;9481;48.796;9.210;2022-07-29T09:19:33;3.80;;;3.10;;
18702;SDS011;9481;48.796;9.210;2022-07-29T09:22:02;4.33;;;2.80;;
18702;SDS011;9481;48.796;9.210;2022-07-29T09:27:24;3.53;;;2.90;;
18702;SDS011;9481;48.796;9.210;2022-07-29T09:30:01;3.27;;;3.03;;
18702;SDS011;9481;48.796;9.210;2022-07-29T09:33:00;2.90;;;2.70;;
18702;SDS011;9481;48.796;9.210;2022-07-29T09:35:28;2.90;;;2.70;;
18702;SDS011;9481;48.796;9.210;2022-07-29T09:37:55;4.57;;;3.10;;
18702;SDS011;9481;48.796;9.210;2022-07-29T09:40:22;5.23;;;2.93;;
18702;SDS011;9481;48.796;9.210;2022-07-29T09:42:51;3.50;;;3.20;;
18702;SDS011;9481;48.796;9.210;2022-07-29T09:47:55;4.07;;;3.07;;
18702;SDS011;9481;48.796;9.210;2022-07-29T09:50:35;3.13;;;2.83;;
18702;SDS011;9481;48.796;9.210;2022-07-29T09:53:02;3.33;;;3.07;;
18702;SDS011;9481;48.796;9.210;2022-07-29T09:55:28;5.03;;;3.10;;
18702;SDS011;9481;48.796;9.210;2022-07-29T09:57:53;3.30;;;3.00;;
18702;SDS011;9481;48.796;9.210;2022-07-29T10:00:44;3.60;;;3.07;;
18702;SDS011;9481;48.796;9.210;2022-07-29T10:03:12;3.83;;;3.07;;
18702;SDS011;9481;48.796;9.210;2022-07-29T10:05:39;3.90;;;2.83;;
18702;SDS011;9481;48.796;9.210;2022-07-29T10:08:06;3.70;;;3.40;;
18702;SDS011;9481;48.796;9.210;2022-07-29T10:10:35;3.73;;;3.43;;
18702;SDS011;9481;48.796;9.210;2022-07-29T10:13:13;3.40;;;3.13;;
18702;SDS011;9481;48.796;9.210;2022-07-29T10:15:40;4.03;;;3.27;;
18702;SDS011;9481;48.796;9.210;2022-07-29T10:18:10;6.93;;;3.07;;
18702;SDS011;9481;48.796;9.210;2022-07-29T10:20:38;3.70;;;3.30;;
18702;SDS011;9481;48.796;9.210;2022-07-29T10:23:05;5.37;;;3.90;;
18702;SDS011;9481;48.796;9.210;2022-07-29T10:25:31;4.47;;;3.37;;
18702;SDS011;9481;48.796;9.210;2022-07-29T10:27:57;3.40;;;3.10;;
18702;SDS011;9481;48.796;9.210;2022-07-29T10:30:24;3.23;;;3.00;;
18702;SDS011;9481;48.796;9.210;2022-07-29T10:32:54;3.40;;;3.10;;
18702;SDS011;9481;48.796;9.210;2022-07-29T10:38:42;3.60;;;3.17;;
18702;SDS011;9481;48.796;9.210;2022-07-29T10:44:21;3.63;;;3.23;;
18702;SDS011;9481;48.796;9.210;2022-07-29T10:46:48;3.60;;;3.30;;
18702;SDS011;9481;48.796;9.210;2022-07-29T10:49:16;3.63;;;3.33;;
18702;SDS011;9481;48.796;9.210;2022-07-29T10:51:55;4.13;;;3.10;;
18702;SDS011;9481;48.796;9.210;2022-07-29T10:54:44;3.77;;;3.47;;
18702;SDS011;9481;48.796;9.210;2022-07-29T10:59:46;4.00;;;3.60;;
18702;SDS011;9481;48.796;9.210;2022-07-29T11:07:31;4.00;;;3.40;;
18702;SDS011;9481;48.796;9.210;2022-07-29T11:15:07;4.83;;;2.73;;
18702;SDS011;9481;48.796;9.210;2022-07-29T11:29:02;4.27;;;2.47;;
18702;SDS011;9481;48.796;9.210;2022-07-29T11:31:45;3.80;;;2.70;;
18702;SDS011;9481;48.796;9.210;2022-07-29T11:34:31;3.17;;;2.87;;
18702;SDS011;9481;48.796;9.210;2022-07-29T11:40:21;4.00;;;2.97;;
18702;SDS011;9481;48.796;9.210;2022-07-29T11:45:15;4.23;;;2.47;;
18702;SDS011;9481;48.796;9.210;2022-07-29T11:50:17;2.40;;;2.20;;
18702;SDS011;9481;48.796;9.210;2022-07-29T11:52:57;3.10;;;2.17;;
18702;SDS011;9481;48.796;9.210;2022-07-29T11:55:23;3.63;;;2.37;;
18702;SDS011;9481;48.796;9.210;2022-07-29T11:58:00;3.53;;;2.50;;
18702;SDS011;9481;48.796;9.210;2022-07-29T12:00:28;4.47;;;2.20;;
18702;SDS011;9481;48.796;9.210;2022-07-29T12:03:08;2.90;;;2.10;;
18702;SDS011;9481;48.796;9.210;2022-07-29T12:05:37;2.17;;;1.97;;
18702;SDS011;9481;48.796;9.210;2022-07-29T12:10:38;2.20;;;2.00;;
18702;SDS011;9481;48.796;9.210;2022-07-29T12:13:06;3.43;;;2.00;;
18702;SDS011;9481;48.796;9.210;2022-07-29T12:15:33;3.00;;;1.80;;
18702;SDS011;9481;48.796;9.210;2022-07-29T12:18:08;5.53;;;1.87;;
18702;SDS011;9481;48.796;9.210;2022-07-29T12:20:39;2.60;;;1.80;;
18702;SDS011;9481;48.796;9.210;2022-07-29T12:23:06;2.87;;;1.60;;
18702;SDS011;9481;48.796;9.210;2022-07-29T12:25:34;1.93;;;1.73;;
18702;SDS011;9481;48.796;9.210;2022-07-29T12:28:03;1.90;;;1.70;;
18702;SDS011;9481;48.796;9.210;2022-07-29T12:35:50;3.67;;;2.10;;
18702;SDS011;9481;48.796;9.210;2022-07-29T12:38:19;3.37;;;2.70;;
18702;SDS011;9481;48.796;9.210;2022-07-29T12:40:46;7.70;;;2.90;;
18702;SDS011;9481;48.796;9.210;2022-07-29T12:43:17;5.77;;;2.80;;
18702;SDS011;9481;48.796;9.210;2022-07-29T12:45:49;4.73;;;2.47;;
18702;SDS011;9481;48.796;9.210;2022-07-29T12:48:30;2.53;;;2.30;;
18702;SDS011;9481;48.796;9.210;2022-07-29T12:51:02;3.60;;;2.50;;
18702;SDS011;9481;48.796;9.210;2022-07-29T12:53:31;2.50;;;2.30;;
18702;SDS011;9481;48.796;9.210;2022-07-29T12:55:57;5.17;;;2.37;;
18702;SDS011;9481;48.796;9.210;2022-07-29T12:58:36;3.20;;;2.20;;
18702;SDS011;9481;48.796;9.210;2022-07-29T13:01:07;3.73;;;2.60;;
18702;SDS011;9481;48.796;9.210;2022-07-29T13:06:32;2.47;;;2.30;;
18702;SDS011;9481;48.796;9.210;2022-07-29T13:09:16;2.47;;;2.27;;
18702;SDS011;9481;48.796;9.210;2022-07-29T13:11:48;2.53;;;2.27;;
18702;SDS011;9481;48.796;9.210;2022-07-29T13:14:33;3.07;;;2.53;;
18702;SDS011;9481;48.796;9.210;2022-07-29T13:19:53;4.57;;;2.87;;
18702;SDS011;9481;48.796;9.210;2022-07-29T13:22:34;3.60;;;2.80;;
18702;SDS011;9481;48.796;9.210;2022-07-29T13:25:01;3.33;;;2.87;;
18702;SDS011;9481;48.796;9.210;2022-07-29T13:27:28;3.23;;;2.73;;
18702;SDS011;9481;48.796;9.210;2022-07-29T13:29:57;4.03;;;2.80;;
18702;SDS011;9481;48.796;9.210;2022-07-29T13:32:25;5.80;;;3.47;;
18702;SDS011;9481;48.796;9.210;2022-07-29T13:34:53;4.17;;;3.20;;
18702;SDS011;9481;48.796;9.210;2022-07-29T13:37:25;4.17;;;3.20;;
18702;SDS011;9481;48.796;9.210;2022-07-29T13:39:54;3.97;;;3.40;;
18702;SDS011;9481;48.796;9.210;2022-07-29T13:42:20;3.80;;;3.33;;
18702;SDS011;9481;48.796;9.210;2022-07-29T13:44:47;4.43;;;3.77;;
18702;SDS011;9481;48.796;9.210;2022-07-29T13:47:15;4.10;;;3.53;;
18702;SDS011;9481;48.796;9.210;2022-07-29T13:49:41;5.27;;;3.30;;
18702;SDS011;9481;48.796;9.210;2022-07-29T13:52:07;4.70;;;3.50;;
18702;SDS011;9481;48.796;9.210;2022-07-29T13:54:33;4.73;;;3.53;;
18702;SDS011;9481;48.796;9.210;2022-07-29T13:57:02;6.60;;;3.63;;
18702;SDS011;9481;48.796;9.210;2022-07-29T13:59:29;7.17;;;3.73;;
18702;SDS011;9481;48.796;9.210;2022-07-29T14:01:54;4.13;;;3.73;;
18702;SDS011;9481;48.796;9.210;2022-07-29T14:04:20;5.33;;;4.03;;
18702;SDS011;9481;48.796;9.210;2022-07-29T14:06:48;4.40;;;3.97;;
18702;SDS011;9481;48.796;9.210;2022-07-29T14:09:14;4.57;;;4.00;;
18702;SDS011;9481;48.796;9.210;2022-07-29T14:11:40;4.17;;;3.83;;
18702;SDS011;9481;48.796;9.210;2022-07-29T14:14:06;4.60;;;4.00;;
18702;SDS011;9481;48.796;9.210;2022-07-29T14:16:32;4.03;;;3.73;;
18702;SDS011;9481;48.796;9.210;2022-07-29T14:18:58;3.83;;;3.53;;
18702;SDS011;9481;48.796;9.210;2022-07-29T14:21:24;4.73;;;4.10;;
18702;SDS011;9481;48.796;9.210;2022-07-29T14:23:49;6.57;;;5.50;;
18702;SDS011;9481;48.796;9.210;2022-07-29T14:26:16;7.17;;;4.67;;
18702;SDS011;9481;48.796;9.210;2022-07-29T14:28:42;5.23;;;4.33;;
18702;SDS011;9481;48.796;9.210;2022-07-29T14:31:08;6.73;;;4.80;;
18702;SDS011;9481;48.796;9.210;2022-07-29T14:33:34;5.33;;;4.83;;
18702;SDS011;9481;48.796;9.210;2022-07-29T14:35:59;5.10;;;4.67;;
18702;SDS011;9481;48.796;9.210;2022-07-29T14:38:25;4.97;;;4.47;;
18702;SDS011;9481;48.796;9.210;2022-07-29T14:40:51;5.73;;;5.10;;
18702;SDS011;9481;48.796;9.210;2022-07-29T14:43:17;5.70;;;4.80;;
18702;SDS011;9481;48.796;9.210;2022-07-29T14:45:42;5.77;;;5.17;;
18702;SDS011;9481;48.796;9.210;2022-07-29T14:48:08;6.63;;;4.67;;
18702;SDS011;9481;48.796;9.210;2022-07-29T14:50:34;6.43;;;4.53;;
18702;SDS011;9481;48.796;9.210;2022-07-29T14:53:00;4.70;;;4.30;;
18702;SDS011;9481;48.796;9.210;2022-07-29T14:55:26;8.90;;;4.80;;
18702;SDS011;9481;48.796;9.210;2022-07-29T14:57:52;6.27;;;4.90;;
18702;SDS011;9481;48.796;9.210;2022-07-29T15:00:18;6.13;;;5.20;;
18702;SDS011;9481;48.796;9.210;2022-07-29T15:02:45;7.93;;;5.67;;
18702;SDS011;9481;48.796;9.210;2022-07-29T15:05:12;7.33;;;5.43;;
18702;SDS011;9481;48.796;9.210;2022-07-29T15:07:38;6.57;;;5.40;;
18702;SDS011;9481;48.796;9.210;2022-07-29T15:10:04;7.00;;;5.57;;
18702;SDS011;9481;48.796;9.210;2022-07-29T15:12:31;7.03;;;5.73;;
18702;SDS011;9481;48.796;9.210;2022-07-29T15:14:57;7.23;;;5.37;;
18702;SDS011;9481;48.796;9.210;2022-07-29T15:17:23;8.40;;;5.57;;
18702;SDS011;9481;48.796;9.210;2022-07-29T15:19:49;6.20;;;5.60;;
18702;SDS011;9481;48.796;9.210;2022-07-29T15:22:15;6.97;;;5.27;;
18702;SDS011;9481;48.796;9.210;2022-07-29T15:24:41;6.80;;;5.60;;
18702;SDS011;9481;48.796;9.210;2022-07-29T15:27:06;5.30;;;4.57;;
18702;SDS011;9481;48.796;9.210;2022-07-29T15:29:38;7.90;;;4.70;;
18702;SDS011;9481;48.796;9.210;2022-07-29T15:32:08;4.80;;;4.13;;
18702;SDS011;9481;48.796;9.210;2022-07-29T15:34:35;4.77;;;4.27;;
18702;SDS011;9481;48.796;9.210;2022-07-29T15:37:01;4.57;;;4.17;;
18702;SDS011;9481;48.796;9.210;2022-07-29T15:39:27;4.73;;;4.33;;
18702;SDS011;9481;48.796;9.210;2022-07-29T15:41:53;4.30;;;4.00;;
18702;SDS011;9481;48.796;9.210;2022-07-29T15:44:19;4.73;;;3.63;;
18702;SDS011;9481;48.796;9.210;2022-07-29T15:46:45;6.53;;;4.43;;
18702;SDS011;9481;48.796;9.210;2022-07-29T15:49:32;5.60;;;3.90;;
18702;SDS011;9481;48.796;9.210;2022-07-29T15:52:03;5.70;;;3.93;;
18702;SDS011;9481;48.796;9.210;2022-07-29T15:54:33;4.97;;;4.30;;
18702;SDS011;9481;48.796;9.210;2022-07-29T15:57:05;5.00;;;4.03;;
18702;SDS011;9481;48.796;9.210;2022-07-29T15:59:32;3.93;;;3.53;;
18702;SDS011;9481;48.796;9.210;2022-07-29T16:01:58;4.23;;;3.83;;
18702;SDS011;9481;48.796;9.210;2022-07-29T16:04:25;5.47;;;3.77;;
18702;SDS011;9481;48.796;9.210;2022-07-29T16:06:52;4.43;;;4.07;;
18702;SDS011;9481;48.796;9.210;2022-07-29T16:09:18;4.80;;;4.00;;
18702;SDS011;9481;48.796;9.210;2022-07-29T16:11:45;4.00;;;3.47;;
18702;SDS011;9481;48.796;9.210;2022-07-29T16:14:12;6.27;;;4.40;;
18702;SDS011;9481;48.796;9.210;2022-07-29T16:16:38;5.60;;;4.20;;
18702;SDS011;9481;48.796;9.210;2022-07-29T16:19:04;6.63;;;4.60;;
18702;SDS011;9481;48.796;9.210;2022-07-29T16:21:31;5.60;;;4.57;;
18702;SDS011;9481;48.796;9.210;2022-07-29T16:23:59;5.63;;;4.40;;
18702;SDS011;9481;48.796;9.210;2022-07-29T16:26:26;5.30;;;4.60;;
18702;SDS011;9481;48.796;9.210;2022-07-29T16:28:52;4.47;;;4.07;;